Time;durP1;ratioP1;P1;durP2;ratioP2;P2;SDS_P1;SDS_P2;PMS_P1;PMS_P2;Temp;Humidity;BMP_temperature;BMP_pressure;BME280_temperature;BME280_humidity;BME280_pressure;Samples;Min_cycle;Max_cycle;Signal;HPM_P1;HPM_P2
2022/06/25 00:00:10;;;;;;;6.40;4.27;;;15.60;99.90;;;;;;5049529;28;20475;-68
2022/06/25 00:02:36;;;;;;;6.67;5.97;;;15.60;99.90;;;;;;5049494;28;20467;-68
2022/06/25 00:07:48;;;;;;;6.13;5.30;;;15.60;99.90;;;;;;5046154;28;21302;-69
2022/06/25 00:10:15;;;;;;;11.50;5.03;;;15.50;99.90;;;;;;5047469;28;20474;-68
2022/06/25 00:12:40;;;;;;;6.93;5.40;;;15.50;99.90;;;;;;5049278;28;20464;-69
2022/06/25 00:15:10;;;;;;;5.67;4.60;;;15.50;99.90;;;;;;5049250;28;20451;-68
2022/06/25 00:17:37;;;;;;;5.87;5.27;;;15.50;99.90;;;;;;5049626;28;20208;-68
2022/06/25 00:20:04;;;;;;;8.30;5.80;;;15.50;99.90;;;;;;5048883;28;20969;-68
2022/06/25 00:22:31;;;;;;;5.77;4.80;;;15.40;99.90;;;;;;5049089;28;20486;-68
2022/06/25 00:24:58;;;;;;;5.47;4.97;;;15.50;99.90;;;;;;5049062;28;20475;-68
2022/06/25 00:27:25;;;;;;;7.63;5.00;;;15.50;99.90;;;;;;5049340;28;20475;-69
2022/06/25 00:29:52;;;;;;;5.63;4.90;;;15.50;99.90;;;;;;5046087;28;21004;-68
2022/06/25 00:32:20;;;;;;;5.90;5.13;;;15.50;99.90;;;;;;5049067;28;20482;-69
2022/06/25 00:34:47;;;;;;;5.87;5.10;;;15.50;99.90;;;;;;5049048;28;20454;-68
2022/06/25 00:37:15;;;;;;;5.60;5.10;;;15.40;99.90;;;;;;5049149;28;20452;-69
2022/06/25 00:39:43;;;;;;;5.40;4.87;;;15.50;99.90;;;;;;5049178;28;20518;-68
2022/06/25 00:42:11;;;;;;;9.23;5.00;;;15.40;99.90;;;;;;5049120;28;20558;-69
2022/06/25 00:44:39;;;;;;;5.13;4.60;;;15.40;99.90;;;;;;5049574;28;20455;-67
2022/06/25 00:47:09;;;;;;;5.40;4.90;;;15.40;99.90;;;;;;5048928;28;20550;-68
2022/06/25 00:49:38;;;;;;;5.27;4.77;;;15.40;99.90;;;;;;5049317;28;20547;-68
2022/06/25 00:52:09;;;;;;;5.43;4.90;;;15.40;99.90;;;;;;5052390;28;20475;-68
2022/06/25 00:54:40;;;;;;;5.53;4.87;;;15.40;99.90;;;;;;5053118;28;20470;-69
2022/06/25 00:57:08;;;;;;;4.67;4.07;;;15.40;99.90;;;;;;5052832;28;20443;-69
2022/06/25 00:59:40;;;;;;;9.00;4.57;;;15.40;99.90;;;;;;5053198;28;20542;-68
2022/06/25 01:02:06;;;;;;;5.10;4.60;;;15.40;99.90;;;;;;5052763;28;20468;-68
2022/06/25 01:04:33;;;;;;;6.13;4.50;;;15.30;99.90;;;;;;5053413;28;20459;-70
2022/06/25 01:07:02;;;;;;;5.90;5.30;;;15.30;99.90;;;;;;5052963;28;20523;-70
2022/06/25 01:09:28;;;;;;;4.77;4.37;;;15.30;99.90;;;;;;5052954;28;20451;-70
2022/06/25 01:11:55;;;;;;;5.50;3.90;;;15.30;99.90;;;;;;5052574;28;20495;-70
2022/06/25 01:14:22;;;;;;;5.10;4.60;;;15.30;99.90;;;;;;5052896;28;20941;-70
2022/06/25 01:16:49;;;;;;;7.27;4.80;;;15.30;99.90;;;;;;5052650;28;20450;-70
2022/06/25 01:19:16;;;;;;;4.60;4.20;;;15.30;99.90;;;;;;5053170;28;20482;-67
2022/06/25 01:21:43;;;;;;;4.73;4.20;;;15.30;99.90;;;;;;5052871;28;20444;-68
2022/06/25 01:24:11;;;;;;;4.10;3.70;;;15.20;99.90;;;;;;5053432;28;20458;-68
2022/06/25 01:26:40;;;;;;;5.40;4.00;;;15.30;99.90;;;;;;5053086;28;21207;-67
2022/06/25 01:29:08;;;;;;;5.40;4.23;;;15.30;99.90;;;;;;5052912;28;20852;-68
2022/06/25 01:31:35;;;;;;;4.63;4.10;;;15.20;99.90;;;;;;5052549;28;20546;-68
2022/06/25 01:34:03;;;;;;;4.27;3.87;;;15.20;99.90;;;;;;5052961;28;20463;-68
2022/06/25 01:36:30;;;;;;;5.20;4.50;;;15.20;99.90;;;;;;5053245;28;20484;-68
2022/06/25 01:38:59;;;;;;;5.50;4.90;;;15.20;99.90;;;;;;5052931;28;20459;-67
2022/06/25 01:41:28;;;;;;;7.57;4.67;;;15.10;99.90;;;;;;5052617;28;20906;-67
2022/06/25 01:43:55;;;;;;;4.43;4.03;;;15.10;99.90;;;;;;5052272;28;20476;-67
2022/06/25 01:46:22;;;;;;;5.67;4.60;;;15.00;99.90;;;;;;5052631;28;20582;-67
2022/06/25 01:48:49;;;;;;;5.30;4.40;;;15.10;99.90;;;;;;5052326;28;21170;-67
2022/06/25 01:51:17;;;;;;;4.90;4.03;;;15.10;99.90;;;;;;5052315;28;20470;-67
2022/06/25 01:53:45;;;;;;;5.47;4.43;;;15.10;99.90;;;;;;5052278;28;21005;-67
2022/06/25 01:56:12;;;;;;;5.97;5.07;;;15.10;99.90;;;;;;5052219;28;20534;-66
2022/06/25 01:58:40;;;;;;;5.47;4.90;;;15.10;99.90;;;;;;5052235;28;20823;-67
2022/06/25 02:01:07;;;;;;;4.50;4.10;;;15.10;99.90;;;;;;5051792;28;20444;-66
2022/06/25 02:03:34;;;;;;;6.47;4.67;;;15.10;99.90;;;;;;5051253;28;20479;-67
2022/06/25 02:06:00;;;;;;;4.93;4.50;;;15.10;99.90;;;;;;5052003;28;20495;-67
2022/06/25 02:08:30;;;;;;;5.63;4.80;;;15.00;99.90;;;;;;5052132;28;20458;-67
2022/06/25 02:10:58;;;;;;;5.50;4.00;;;15.00;99.90;;;;;;5051408;28;20447;-67
2022/06/25 02:13:25;;;;;;;5.13;4.73;;;15.00;99.90;;;;;;5052062;28;20843;-66
2022/06/25 02:15:54;;;;;;;4.43;4.03;;;15.00;99.90;;;;;;5051944;28;20447;-67
2022/06/25 02:18:21;;;;;;;5.60;4.33;;;15.00;99.90;;;;;;5052147;28;20823;-67
2022/06/25 02:20:48;;;;;;;10.00;4.30;;;15.00;99.90;;;;;;5051459;28;20450;-67
2022/06/25 02:23:16;;;;;;;5.33;4.33;;;15.00;99.90;;;;;;5051710;28;20468;-67
2022/06/25 02:25:46;;;;;;;4.13;3.70;;;14.90;99.90;;;;;;5051584;28;20993;-67
2022/06/25 02:28:14;;;;;;;4.47;3.83;;;15.00;99.90;;;;;;5051729;28;20454;-67
2022/06/25 02:30:41;;;;;;;4.40;3.90;;;15.00;99.90;;;;;;5051512;28;20448;-67
2022/06/25 02:33:11;;;;;;;4.30;3.90;;;14.90;99.90;;;;;;5051650;28;20471;-67
2022/06/25 02:35:39;;;;;;;8.43;5.13;;;14.90;99.90;;;;;;5051582;28;20475;-67
2022/06/25 02:38:06;;;;;;;8.20;4.13;;;14.90;99.90;;;;;;5051246;28;20448;-67
2022/06/25 02:40:33;;;;;;;6.30;4.23;;;14.90;99.90;;;;;;5051325;28;20456;-66
2022/06/25 02:43:01;;;;;;;5.93;4.00;;;14.90;99.90;;;;;;5051361;28;20464;-67
2022/06/25 02:45:28;;;;;;;4.20;3.70;;;14.90;99.90;;;;;;5051534;28;20448;-67
2022/06/25 02:47:56;;;;;;;4.33;3.70;;;14.90;99.90;;;;;;5051485;28;20460;-66
2022/06/25 02:50:25;;;;;;;5.07;4.20;;;14.90;99.90;;;;;;5050953;28;20495;-67
2022/06/25 02:52:52;;;;;;;3.93;3.53;;;14.90;99.90;;;;;;5051274;28;20467;-67
2022/06/25 02:55:19;;;;;;;4.20;3.70;;;14.90;99.90;;;;;;5051384;28;20831;-67
2022/06/25 03:00:30;;;;;;;4.10;3.60;;;14.80;99.90;;;;;;5050887;28;20428;-67
2022/06/25 03:02:57;;;;;;;4.30;3.90;;;14.80;99.90;;;;;;5050921;28;20965;-66
2022/06/25 03:05:25;;;;;;;4.90;3.30;;;14.80;99.90;;;;;;5050763;28;20452;-66
2022/06/25 03:07:52;;;;;;;4.10;3.60;;;14.80;99.90;;;;;;5050874;28;20498;-66
2022/06/25 03:10:19;;;;;;;3.87;3.57;;;14.90;99.90;;;;;;5050696;28;20459;-67
2022/06/25 03:12:45;;;;;;;4.40;3.70;;;14.90;99.90;;;;;;5050636;28;20571;-67
2022/06/25 03:15:12;;;;;;;4.13;3.53;;;14.90;99.90;;;;;;5050587;28;20448;-67
2022/06/25 03:17:39;;;;;;;3.57;3.27;;;14.90;99.90;;;;;;5050658;28;20440;-67
2022/06/25 03:20:07;;;;;;;4.50;3.43;;;14.90;99.90;;;;;;5050446;28;20746;-67
2022/06/25 03:22:35;;;;;;;3.60;3.30;;;14.90;99.90;;;;;;5050712;28;20463;-67
2022/06/25 03:25:02;;;;;;;4.27;3.87;;;14.90;99.90;;;;;;5050644;28;20942;-67
2022/06/25 03:27:28;;;;;;;5.03;3.40;;;14.80;99.90;;;;;;5050606;28;20848;-66
2022/06/25 03:29:55;;;;;;;5.13;3.67;;;14.80;99.90;;;;;;5050141;28;20938;-67
2022/06/25 03:32:22;;;;;;;5.07;3.47;;;14.90;99.90;;;;;;5050451;28;20567;-67
2022/06/25 03:34:49;;;;;;;4.23;3.60;;;14.90;99.90;;;;;;5050645;28;20452;-67
2022/06/25 03:37:16;;;;;;;4.87;3.60;;;14.80;99.90;;;;;;5050244;28;20444;-66
2022/06/25 03:39:44;;;;;;;9.47;4.27;;;14.80;99.90;;;;;;5050160;28;21247;-67
2022/06/25 03:42:11;;;;;;;4.23;3.13;;;14.80;99.90;;;;;;5049906;28;20474;-69
2022/06/25 03:44:37;;;;;;;4.97;3.20;;;14.80;99.90;;;;;;5050179;28;20456;-66
2022/06/25 03:47:05;;;;;;;7.73;3.10;;;14.80;99.90;;;;;;5050138;28;20523;-67
2022/06/25 03:49:32;;;;;;;5.60;3.90;;;14.80;99.90;;;;;;5050149;28;21123;-66
2022/06/25 03:51:58;;;;;;;4.13;3.63;;;14.70;99.90;;;;;;5049716;28;20482;-67
2022/06/25 03:54:25;;;;;;;5.33;3.50;;;14.70;99.90;;;;;;5050458;28;20444;-67
2022/06/25 03:56:54;;;;;;;3.60;3.30;;;14.80;99.90;;;;;;5049976;28;20456;-67
2022/06/25 03:59:20;;;;;;;4.00;3.60;;;14.80;99.90;;;;;;5050014;28;20839;-67
2022/06/25 04:01:47;;;;;;;5.83;3.90;;;14.80;99.90;;;;;;5050009;28;20548;-68
2022/06/25 04:04:14;;;;;;;5.47;3.70;;;14.80;99.90;;;;;;5049872;28;20454;-69
2022/06/25 04:06:41;;;;;;;7.77;4.33;;;14.80;99.90;;;;;;5049987;28;20480;-66
2022/06/25 04:09:08;;;;;;;4.93;3.57;;;14.80;99.90;;;;;;5049935;28;20467;-66
2022/06/25 04:11:35;;;;;;;5.20;3.67;;;14.90;99.90;;;;;;5049845;28;20454;-66
2022/06/25 04:14:03;;;;;;;6.90;3.70;;;14.90;99.90;;;;;;5049859;28;20475;-67
2022/06/25 04:16:30;;;;;;;5.60;3.10;;;15.00;99.90;;;;;;5050312;28;20454;-67
2022/06/25 04:18:57;;;;;;;6.13;3.30;;;15.00;99.90;;;;;;5049991;28;20467;-67
2022/06/25 04:21:24;;;;;;;5.83;4.00;;;15.00;99.90;;;;;;5049690;28;20451;-67
2022/06/25 04:23:52;;;;;;;4.90;3.93;;;15.10;99.90;;;;;;5049687;28;20464;-66
2022/06/25 04:26:18;;;;;;;3.33;3.03;;;15.10;99.90;;;;;;5048910;28;20491;-67
2022/06/25 04:31:31;;;;;;;4.30;3.90;;;15.10;99.90;;;;;;5049650;28;20420;-66
2022/06/25 04:33:58;;;;;;;8.77;3.70;;;15.20;99.90;;;;;;5049641;28;20472;-67
2022/06/25 04:36:25;;;;;;;6.27;4.30;;;15.20;99.90;;;;;;5049642;28;20444;-66
2022/06/25 04:38:53;;;;;;;4.40;4.00;;;15.30;99.90;;;;;;5049493;28;20444;-67
2022/06/25 04:41:20;;;;;;;4.17;3.77;;;15.40;99.90;;;;;;5049282;28;20448;-66
2022/06/25 04:43:47;;;;;;;4.60;3.70;;;15.40;99.90;;;;;;5049560;28;20556;-67
2022/06/25 04:46:14;;;;;;;5.27;4.27;;;15.40;99.90;;;;;;5049347;28;20458;-67
2022/06/25 04:48:42;;;;;;;4.50;3.50;;;15.50;99.90;;;;;;5049550;28;20448;-67
2022/06/25 04:51:09;;;;;;;8.50;4.13;;;15.50;99.90;;;;;;5048880;28;20444;-67
2022/06/25 04:53:54;;;;;;;5.57;4.00;;;15.60;99.90;;;;;;5049295;28;20922;-66
2022/06/25 04:56:22;;;;;;;5.30;4.17;;;15.60;99.90;;;;;;5049515;28;20447;-66
2022/06/25 04:58:49;;;;;;;5.07;3.90;;;15.60;99.90;;;;;;5049666;28;20467;-69
2022/06/25 05:01:16;;;;;;;6.53;3.33;;;15.60;99.90;;;;;;5049250;28;20459;-69
2022/06/25 05:03:44;;;;;;;6.30;4.17;;;15.70;99.90;;;;;;5049481;28;20480;-68
2022/06/25 05:06:11;;;;;;;4.40;3.73;;;15.70;99.90;;;;;;5049294;28;20447;-69
2022/06/25 05:08:38;;;;;;;3.67;3.13;;;15.80;99.90;;;;;;5049489;28;20463;-69
2022/06/25 05:11:05;;;;;;;4.50;3.20;;;15.80;99.90;;;;;;5049018;28;20531;-68
2022/06/25 05:13:32;;;;;;;5.40;3.33;;;15.90;99.90;;;;;;5049128;28;20471;-68
2022/06/25 05:15:59;;;;;;;4.33;3.63;;;15.90;99.90;;;;;;5049266;28;20844;-68
2022/06/25 05:18:25;;;;;;;7.30;3.50;;;16.00;99.90;;;;;;5048838;28;20454;-68
2022/06/25 05:20:53;;;;;;;3.53;3.20;;;16.00;99.90;;;;;;5049071;28;20535;-68
2022/06/25 05:23:20;;;;;;;3.70;3.10;;;16.00;99.90;;;;;;5049146;28;20470;-69
2022/06/25 05:25:47;;;;;;;7.03;3.23;;;16.10;99.90;;;;;;5049325;28;20455;-69
2022/06/25 05:28:15;;;;;;;4.53;3.50;;;16.20;99.90;;;;;;5048952;28;20490;-68
2022/06/25 05:30:42;;;;;;;3.23;2.70;;;16.20;99.90;;;;;;5049100;28;20479;-69
2022/06/25 05:33:09;;;;;;;3.90;3.00;;;16.30;99.90;;;;;;5049125;28;20466;-68
2022/06/25 05:35:35;;;;;;;2.67;2.30;;;16.30;99.90;;;;;;5049360;28;20889;-68
2022/06/25 05:38:04;;;;;;;3.00;2.57;;;16.30;99.90;;;;;;5052403;28;20455;-69
2022/06/25 05:40:30;;;;;;;3.57;2.80;;;16.40;99.90;;;;;;5052647;28;20447;-68
2022/06/25 05:42:57;;;;;;;3.27;2.97;;;16.40;99.90;;;;;;5052684;28;20475;-68
2022/06/25 05:45:24;;;;;;;3.70;2.67;;;16.50;99.90;;;;;;5052537;28;20455;-69
2022/06/25 05:47:51;;;;;;;4.33;3.13;;;16.50;99.90;;;;;;5052679;28;20491;-68
2022/06/25 05:50:19;;;;;;;4.00;3.10;;;16.60;99.90;;;;;;5052347;28;20452;-68
2022/06/25 05:52:46;;;;;;;3.60;2.77;;;16.70;99.90;;;;;;5052803;28;20464;-67
2022/06/25 05:55:14;;;;;;;3.10;2.50;;;16.70;99.90;;;;;;5052375;28;20456;-66
2022/06/25 05:57:41;;;;;;;3.20;2.53;;;16.90;99.90;;;;;;5052429;28;20898;-66
2022/06/25 06:00:09;;;;;;;2.97;2.67;;;16.90;99.90;;;;;;5051877;28;20456;-66
2022/06/25 06:02:36;;;;;;;3.00;2.70;;;16.90;99.90;;;;;;5052238;28;20475;-66
2022/06/25 06:05:03;;;;;;;4.80;2.60;;;17.00;99.90;;;;;;5052507;28;20451;-66
2022/06/25 06:07:30;;;;;;;4.57;2.30;;;17.00;99.90;;;;;;5052290;28;20479;-65
2022/06/25 06:09:56;;;;;;;4.10;2.47;;;17.10;99.90;;;;;;5051462;28;20444;-66
2022/06/25 06:12:25;;;;;;;4.77;2.60;;;17.10;99.90;;;;;;5052003;28;21183;-66
2022/06/25 06:14:51;;;;;;;3.97;2.60;;;17.20;99.90;;;;;;5051954;28;20447;-66
2022/06/25 06:17:18;;;;;;;2.63;2.30;;;17.30;99.90;;;;;;5052086;28;20543;-66
2022/06/25 06:19:45;;;;;;;3.13;2.73;;;17.30;99.90;;;;;;5051915;28;20451;-65
2022/06/25 06:22:12;;;;;;;7.87;2.80;;;17.40;99.90;;;;;;5051999;28;20468;-66
2022/06/25 06:24:38;;;;;;;3.93;3.00;;;17.50;99.90;;;;;;5052096;28;20459;-65
2022/06/25 06:27:06;;;;;;;3.60;2.23;;;17.60;99.90;;;;;;5051847;28;20564;-65
2022/06/25 06:29:34;;;;;;;3.80;2.60;;;17.60;99.90;;;;;;5052195;28;21086;-66
2022/06/25 06:32:01;;;;;;;4.10;2.87;;;17.70;99.90;;;;;;5051336;28;20877;-67
2022/06/25 06:34:27;;;;;;;5.30;3.20;;;17.80;99.90;;;;;;5051807;28;20448;-65
2022/06/25 06:36:54;;;;;;;4.20;2.40;;;17.90;99.90;;;;;;5051489;28;20448;-65
2022/06/25 06:39:21;;;;;;;3.83;2.83;;;18.00;99.90;;;;;;5051531;28;20451;-65
2022/06/25 06:41:48;;;;;;;4.10;2.47;;;18.00;99.90;;;;;;5051064;28;20452;-65
2022/06/25 06:44:14;;;;;;;3.53;2.20;;;18.10;99.90;;;;;;5051733;28;20448;-65
2022/06/25 06:46:43;;;;;;;3.47;2.70;;;18.20;99.90;;;;;;5051840;28;20448;-66
2022/06/25 06:49:10;;;;;;;3.50;2.40;;;18.30;99.90;;;;;;5050901;28;20436;-66
2022/06/25 06:51:37;;;;;;;3.33;2.60;;;18.40;99.90;;;;;;5048720;28;20456;-66
2022/06/25 06:54:04;;;;;;;5.80;3.00;;;18.50;99.90;;;;;;5044966;28;20550;-66
2022/06/25 06:56:30;;;;;;;3.07;2.77;;;18.60;99.90;;;;;;5051473;28;20446;-65
2022/06/25 06:58:57;;;;;;;4.40;2.10;;;18.70;99.90;;;;;;5051305;28;20467;-65
2022/06/25 07:01:24;;;;;;;8.90;3.30;;;18.80;99.90;;;;;;5051247;28;20883;-66
2022/06/25 07:03:53;;;;;;;5.77;2.40;;;18.90;99.90;;;;;;5051172;28;20475;-66
2022/06/25 07:06:20;;;;;;;9.73;2.70;;;19.00;99.90;;;;;;5051264;28;20452;-65
2022/06/25 07:08:47;;;;;;;3.60;2.80;;;19.10;99.90;;;;;;5050592;28;20869;-66
2022/06/25 07:11:30;;;;;;;3.47;2.20;;;19.30;99.90;;;;;;5050856;28;20455;-64
2022/06/25 07:13:57;;;;;;;7.20;2.43;;;19.40;99.90;;;;;;5051091;28;20467;-66
2022/06/25 07:16:24;;;;;;;8.20;2.50;;;19.60;99.90;;;;;;5050700;28;20926;-66
2022/06/25 07:18:53;;;;;;;5.03;2.87;;;19.70;99.90;;;;;;5050872;28;20439;-65
2022/06/25 07:21:20;;;;;;;8.23;3.30;;;19.70;99.90;;;;;;5050307;28;20444;-66
2022/06/25 07:23:47;;;;;;;6.77;3.60;;;19.90;99.90;;;;;;5050774;28;20989;-65
2022/06/25 07:26:14;;;;;;;3.47;2.30;;;20.00;99.90;;;;;;5050557;28;20942;-65
2022/06/25 07:28:40;;;;;;;4.40;2.20;;;20.20;99.90;;;;;;5050397;28;20490;-65
2022/06/25 07:31:07;;;;;;;7.80;2.33;;;20.40;99.90;;;;;;5049953;28;20444;-64
2022/06/25 07:33:34;;;;;;;3.03;2.30;;;20.50;99.90;;;;;;5050094;28;20471;-65
2022/06/25 07:36:03;;;;;;;4.50;2.07;;;20.70;99.90;;;;;;5049816;28;20832;-65
2022/06/25 07:38:30;;;;;;;4.97;2.20;;;20.90;99.90;;;;;;5050370;28;20447;-66
2022/06/25 07:40:57;;;;;;;2.70;1.97;;;21.20;99.90;;;;;;5048278;28;20448;-70
2022/06/25 07:43:25;;;;;;;4.60;2.47;;;21.30;99.90;;;;;;5049064;28;20507;-68
2022/06/25 07:45:52;;;;;;;2.57;1.67;;;21.50;99.90;;;;;;5049232;28;20448;-68
2022/06/25 07:48:19;;;;;;;4.50;2.13;;;21.60;99.90;;;;;;5040372;28;20490;-68
2022/06/25 07:53:32;;;;;;;2.53;1.70;;;21.60;99.90;;;;;;5042932;28;20482;-68
2022/06/25 07:55:59;;;;;;;3.00;2.10;;;21.60;99.90;;;;;;5049875;28;20452;-68
2022/06/25 07:58:26;;;;;;;2.90;1.77;;;21.60;99.90;;;;;;5049032;28;20832;-68
2022/06/25 08:00:53;;;;;;;4.28;2.65;;;21.60;99.90;;;;;;5041371;28;20350;-69
2022/06/25 08:03:20;;;;;;;2.70;1.90;;;21.70;99.90;;;;;;5042911;28;20227;-67
2022/06/25 08:05:47;;;;;;;4.00;1.93;;;21.70;99.90;;;;;;5039448;28;20444;-68
2022/06/25 08:08:14;;;;;;;4.93;2.17;;;21.80;99.90;;;;;;5045243;28;20519;-68
2022/06/25 08:10:42;;;;;;;3.53;2.23;;;21.90;99.90;;;;;;5041766;28;21141;-67
2022/06/25 08:13:09;;;;;;;5.53;2.77;;;21.90;99.90;;;;;;5043778;28;20467;-67
2022/06/25 08:15:36;;;;;;;4.50;2.60;;;22.00;99.90;;;;;;5038517;28;20444;-68
2022/06/25 08:18:03;;;;;;;4.23;2.10;;;22.10;99.90;;;;;;5038899;28;20879;-67
2022/06/25 08:20:30;;;;;;;3.33;2.00;;;22.10;99.90;;;;;;5038864;28;20456;-67
2022/06/25 08:22:57;;;;;;;3.47;2.10;;;22.10;99.90;;;;;;5037580;28;20956;-68
2022/06/25 08:25:24;;;;;;;2.60;2.10;;;22.10;99.90;;;;;;5039645;28;20451;-67
2022/06/25 08:27:53;;;;;;;6.10;2.43;;;22.20;99.90;;;;;;5037428;28;20483;-68
2022/06/25 08:30:21;;;;;;;2.57;2.03;;;22.30;99.90;;;;;;5038895;28;20452;-68
2022/06/25 08:32:48;;;;;;;6.17;2.10;;;22.30;99.90;;;;;;5038144;28;20468;-68
2022/06/25 08:35:15;;;;;;;5.60;2.77;;;22.40;99.90;;;;;;5038987;28;20444;-69
2022/06/25 08:37:44;;;;;;;4.20;2.33;;;22.40;99.90;;;;;;5035936;28;20447;-70
2022/06/25 08:40:12;;;;;;;2.63;2.23;;;22.50;99.90;;;;;;5038852;28;20471;-67
2022/06/25 08:42:38;;;;;;;3.97;2.27;;;22.60;99.90;;;;;;5038594;28;20472;-70
2022/06/25 08:45:08;;;;;;;3.70;2.07;;;22.50;99.90;;;;;;5040172;28;20454;-67
2022/06/25 08:47:36;;;;;;;2.80;2.00;;;22.50;99.90;;;;;;5039195;28;20448;-68
2022/06/25 08:50:04;;;;;;;2.73;2.00;;;22.70;99.90;;;;;;5046032;28;20456;-67
2022/06/25 08:52:32;;;;;;;3.17;2.30;;;22.80;99.90;;;;;;5041418;28;20464;-67
2022/06/25 08:55:00;;;;;;;3.47;2.50;;;23.00;99.90;;;;;;5046710;28;20482;-67
2022/06/25 08:57:27;;;;;;;5.93;2.40;;;23.00;99.90;;;;;;5049149;28;20444;-67
2022/06/25 08:59:56;;;;;;;3.57;2.07;;;22.80;99.90;;;;;;5048809;28;20444;-67
2022/06/25 09:02:24;;;;;;;2.80;1.80;;;22.60;99.90;;;;;;5048992;28;20475;-67
2022/06/25 09:04:51;;;;;;;3.40;2.30;;;22.50;99.90;;;;;;5041747;28;20444;-67
2022/06/25 09:07:20;;;;;;;3.73;2.63;;;22.50;99.90;;;;;;5045841;28;20543;-67
2022/06/25 09:09:49;;;;;;;3.20;2.00;;;22.60;99.90;;;;;;5037649;28;20551;-70
2022/06/25 09:12:16;;;;;;;3.50;2.13;;;22.80;99.90;;;;;;5045111;28;20472;-67
2022/06/25 09:14:43;;;;;;;3.37;2.40;;;22.70;99.90;;;;;;5044280;28;20480;-67
2022/06/25 09:17:12;;;;;;;3.07;1.57;;;22.60;99.90;;;;;;5050579;28;20502;-67
2022/06/25 09:19:42;;;;;;;3.03;1.70;;;22.50;99.90;;;;;;5052577;28;20821;-67
2022/06/25 09:22:11;;;;;;;3.60;1.83;;;22.40;99.90;;;;;;5052882;28;20470;-68
2022/06/25 09:24:45;;;;;;;3.67;2.30;;;22.40;99.90;;;;;;5051168;28;20475;-66
2022/06/25 09:27:13;;;;;;;3.97;2.20;;;22.60;99.90;;;;;;5050004;28;20443;-68
2022/06/25 09:29:42;;;;;;;2.77;2.00;;;22.80;99.90;;;;;;5046547;28;20479;-69
2022/06/25 09:32:10;;;;;;;2.80;2.30;;;23.10;99.90;;;;;;5047360;28;20529;-67
2022/06/25 09:34:38;;;;;;;4.53;2.20;;;23.20;99.90;;;;;;5040609;28;20463;-67
2022/06/25 09:37:24;;;;;;;4.73;2.40;;;23.40;99.90;;;;;;5035718;28;20444;-68
2022/06/25 09:39:53;;;;;;;6.67;3.10;;;23.40;99.90;;;;;;5032128;28;20451;-67
2022/06/25 09:42:25;;;;;;;2.83;1.80;;;23.60;99.90;;;;;;5031554;28;20480;-69
2022/06/25 09:45:08;;;;;;;3.07;2.27;;;23.70;99.90;;;;;;5039420;28;20990;-68
2022/06/25 09:47:37;;;;;;;3.10;2.20;;;23.50;99.90;;;;;;5042327;28;20457;-69
2022/06/25 09:50:10;;;;;;;3.20;2.20;;;23.50;99.90;;;;;;5042173;28;21047;-68
2022/06/25 09:52:48;;;;;;;3.97;2.30;;;23.80;99.90;;;;;;5041976;28;20467;-69
2022/06/25 09:55:15;;;;;;;3.77;2.10;;;24.20;99.90;;;;;;5046660;28;20456;-69
2022/06/25 09:57:44;;;;;;;6.93;2.20;;;24.50;99.90;;;;;;5043361;28;20456;-69
2022/06/25 10:00:14;;;;;;;5.80;2.13;;;24.80;99.90;;;;;;5052097;28;20979;-68
2022/06/25 10:02:43;;;;;;;3.60;2.17;;;25.30;99.90;;;;;;5053584;28;20905;-69
2022/06/25 10:05:12;;;;;;;3.63;2.10;;;26.20;99.90;;;;;;5048453;28;20557;-69
2022/06/25 10:08:04;;;;;;;4.00;2.00;;;27.30;99.90;;;;;;5051631;28;20961;-70
2022/06/25 10:10:34;;;;;;;4.30;2.60;;;28.00;99.90;;;;;;5053564;28;20440;-70
2022/06/25 10:13:03;;;;;;;5.30;2.17;;;28.50;99.90;;;;;;5052596;28;20474;-69
2022/06/25 10:15:30;;;;;;;2.50;1.70;;;29.00;99.80;;;;;;5048247;28;20445;-70
2022/06/25 10:18:00;;;;;;;4.50;1.90;;;29.70;98.30;;;;;;5047943;28;20455;-70
2022/06/25 10:20:27;;;;;;;3.17;1.60;;;30.80;97.90;;;;;;5046501;28;20449;-69
2022/06/25 10:22:55;;;;;;;3.07;2.00;;;31.10;94.60;;;;;;5049555;28;20464;-68
2022/06/25 10:25:25;;;;;;;4.93;1.73;;;31.90;95.40;;;;;;5051598;28;20459;-69
2022/06/25 10:28:02;;;;;;;3.73;1.70;;;32.10;93.50;;;;;;5051520;28;20464;-69
2022/06/25 10:30:47;;;;;;;2.40;1.27;;;32.40;90.50;;;;;;5051293;28;20448;-69
2022/06/25 10:33:15;;;;;;;2.80;1.47;;;33.10;89.10;;;;;;5051505;28;20517;-69
2022/06/25 10:35:44;;;;;;;2.30;1.37;;;33.30;89.70;;;;;;5054024;28;20953;-66
2022/06/25 10:38:13;;;;;;;2.47;1.50;;;33.60;83.50;;;;;;5051308;28;20452;-67
2022/06/25 10:40:49;;;;;;;4.83;1.93;;;33.30;82.80;;;;;;5050996;28;20454;-69
2022/06/25 10:43:40;;;;;;;3.40;1.67;;;32.90;83.90;;;;;;5048181;28;20480;-69
2022/06/25 10:46:26;;;;;;;4.43;1.90;;;32.30;87.60;;;;;;5047908;28;20468;-69
2022/06/25 10:49:08;;;;;;;5.30;2.40;;;31.80;83.80;;;;;;5045493;28;20479;-69
2022/06/25 10:51:42;;;;;;;2.50;1.30;;;31.90;84.40;;;;;;5043222;28;20452;-69
2022/06/25 10:54:15;;;;;;;3.10;1.80;;;32.40;85.70;;;;;;5049144;28;20451;-70
2022/06/25 10:56:47;;;;;;;2.20;1.40;;;32.80;85.50;;;;;;5043362;28;20437;-69
2022/06/25 10:59:46;;;;;;;5.20;1.60;;;33.10;81.10;;;;;;5045151;28;20436;-70
2022/06/25 11:02:14;;;;;;;3.23;1.80;;;32.40;79.50;;;;;;5032830;28;20543;-70
2022/06/25 11:04:48;;;;;;;3.30;1.50;;;31.70;87.30;;;;;;5055770;28;20830;-69
2022/06/25 11:07:17;;;;;;;4.00;1.80;;;32.10;87.20;;;;;;5050860;28;20457;-70
2022/06/25 11:09:54;;;;;;;2.93;1.67;;;32.50;88.30;;;;;;5050529;28;20483;-67
2022/06/25 11:12:21;;;;;;;3.47;1.70;;;32.40;78.00;;;;;;5047441;28;20546;-69
2022/06/25 11:14:51;;;;;;;2.37;1.60;;;32.50;83.70;;;;;;5047350;28;21014;-69
2022/06/25 11:17:18;;;;;;;4.20;1.90;;;32.70;89.20;;;;;;5051041;28;20474;-69
2022/06/25 11:19:44;;;;;;;2.63;1.70;;;32.80;80.00;;;;;;5050522;28;20449;-68
2022/06/25 11:22:11;;;;;;;2.63;1.50;;;32.60;81.60;;;;;;5050391;28;20547;-68
2022/06/25 11:28:47;;;;;;;3.30;1.70;;;32.60;74.90;;;;;;5050316;28;20452;-68
2022/06/25 11:30:14;;;;;;;3.43;1.70;;;31.90;82.70;;;;;;5049401;28;21052;-69
2022/06/25 11:32:44;;;;;;;3.73;2.17;;;31.70;84.60;;;;;;5045158;28;20566;-69
2022/06/25 11:35:10;;;;;;;2.97;2.00;;;31.80;85.00;;;;;;5047447;28;20991;-70
2022/06/25 11:37:37;;;;;;;3.20;1.63;;;31.30;82.60;;;;;;5049013;28;20441;-69
2022/06/25 11:40:13;;;;;;;2.23;1.50;;;31.10;87.00;;;;;;5042345;28;20436;-69
2022/06/25 11:42:41;;;;;;;2.87;1.63;;;30.60;86.10;;;;;;5050357;28;20464;-69
2022/06/25 11:45:09;;;;;;;2.73;1.60;;;30.60;87.40;;;;;;5049927;28;20462;-70
2022/06/25 11:47:37;;;;;;;4.10;2.13;;;31.30;86.90;;;;;;5043823;28;20443;-70
2022/06/25 11:50:07;;;;;;;4.53;2.20;;;31.90;78.50;;;;;;5049578;28;20516;-70
2022/06/25 11:52:34;;;;;;;2.30;1.63;;;32.30;83.10;;;;;;5050012;28;20468;-70
2022/06/25 11:55:02;;;;;;;3.97;1.90;;;32.60;78.60;;;;;;5044461;28;20448;-70
2022/06/25 11:57:29;;;;;;;3.37;1.90;;;33.10;74.60;;;;;;5046756;28;20453;-70
2022/06/25 11:59:57;;;;;;;4.13;2.00;;;33.70;81.50;;;;;;5045805;28;20432;-72
2022/06/25 12:02:25;;;;;;;5.20;2.00;;;33.60;74.50;;;;;;5046985;28;21269;-71
2022/06/25 12:04:54;;;;;;;3.40;1.73;;;33.80;76.90;;;;;;5049527;28;20459;-71
2022/06/25 12:07:23;;;;;;;3.57;1.50;;;34.30;73.10;;;;;;5041566;28;20488;-70
2022/06/25 12:09:52;;;;;;;2.13;1.50;;;34.60;73.60;;;;;;5033799;28;20485;-71
2022/06/25 12:12:21;;;;;;;3.80;1.97;;;34.10;78.70;;;;;;5040961;28;20475;-72
2022/06/25 12:14:48;;;;;;;2.30;1.80;;;34.40;73.50;;;;;;5038069;28;20537;-71
2022/06/25 12:17:17;;;;;;;2.23;1.20;;;35.10;72.90;;;;;;5041883;28;20462;-72
2022/06/25 12:19:45;;;;;;;2.40;1.50;;;35.70;61.70;;;;;;5043100;28;20841;-71
2022/06/25 12:22:22;;;;;;;3.17;1.30;;;35.20;63.90;;;;;;5047154;28;20476;-70
2022/06/25 12:24:49;;;;;;;2.50;1.70;;;34.50;63.50;;;;;;5044879;28;20452;-69
2022/06/25 12:27:17;;;;;;;4.03;1.60;;;34.00;67.90;;;;;;5043256;28;20451;-69
2022/06/25 12:29:47;;;;;;;2.23;1.60;;;33.80;65.40;;;;;;5042984;28;20490;-67
2022/06/25 12:32:14;;;;;;;2.27;1.40;;;33.70;70.10;;;;;;5046729;28;20464;-70
2022/06/25 12:34:48;;;;;;;2.23;1.67;;;34.10;66.40;;;;;;5047153;28;20890;-69
2022/06/25 12:37:27;;;;;;;2.63;1.77;;;34.80;74.60;;;;;;5038928;28;20447;-69
2022/06/25 12:39:57;;;;;;;3.43;1.90;;;35.00;60.80;;;;;;5048708;28;20973;-67
2022/06/25 12:42:24;;;;;;;3.30;1.50;;;34.90;61.20;;;;;;5038474;28;20563;-70
2022/06/25 12:44:52;;;;;;;2.73;1.57;;;33.70;59.60;;;;;;5041740;28;20448;-67
2022/06/25 12:47:20;;;;;;;2.83;1.73;;;33.50;63.40;;;;;;5044264;28;21205;-70
2022/06/25 12:49:50;;;;;;;3.27;1.50;;;34.00;62.80;;;;;;5048604;28;20472;-67
2022/06/25 12:52:20;;;;;;;3.07;1.57;;;34.20;66.90;;;;;;5040388;28;20533;-69
2022/06/25 12:54:49;;;;;;;2.13;1.43;;;34.00;62.10;;;;;;5044430;28;20450;-70
2022/06/25 12:57:21;;;;;;;2.57;1.57;;;33.50;58.60;;;;;;5050655;28;20462;-68
2022/06/25 12:59:48;;;;;;;3.87;2.00;;;33.20;59.20;;;;;;5043978;28;20449;-67
2022/06/25 13:02:15;;;;;;;2.87;1.70;;;33.50;62.50;;;;;;5038712;28;20519;-68
2022/06/25 13:04:42;;;;;;;3.30;2.10;;;34.00;64.50;;;;;;5040556;28;20827;-68
2022/06/25 13:07:11;;;;;;;3.00;1.77;;;34.30;65.10;;;;;;5050813;28;20446;-69